createdAt,value
2019-02-27T00:00:59.969Z,42.40
2019-02-27T00:06:06.329Z,43.85
2019-02-27T00:11:13.009Z,30.60
2019-02-27T00:16:19.339Z,34.78
2019-02-27T00:21:25.584Z,37.17
2019-02-27T00:26:31.790Z,36.85
2019-02-27T00:31:38.071Z,29.67
2019-02-27T00:36:45.178Z,27.15
2019-02-27T00:41:54.130Z,28.32
2019-02-27T00:47:00.130Z,32.15
2019-02-27T00:52:06.454Z,29.35
2019-02-27T00:57:12.464Z,31.23
2019-02-27T01:02:20.285Z,29.15
2019-02-27T01:07:26.787Z,29.07
2019-02-27T01:12:32.924Z,26.82
2019-02-27T01:17:39.001Z,25.25
2019-02-27T01:22:45.128Z,27.27
2019-02-27T01:27:51.205Z,22.90
2019-02-27T01:32:57.684Z,29.70
2019-02-27T01:38:05.312Z,24.15
2019-02-27T01:43:11.627Z,25.17
2019-02-27T01:48:19.967Z,26.20
2019-02-27T01:53:26.006Z,26.05
2019-02-27T01:58:32.226Z,21.60
2019-02-27T02:03:38.471Z,24.80
2019-02-27T02:08:48.002Z,30.77
2019-02-27T02:14:08.970Z,48.23
2019-02-27T02:19:39.620Z,22.25
2019-02-27T02:25:21.256Z,27.42
2019-02-27T02:31:05.607Z,33.40
2019-02-27T02:36:42.399Z,38.10
2019-02-27T02:42:10.713Z,23.45
2019-02-27T02:47:56.971Z,33.90
2019-02-27T02:53:33.914Z,22.35
2019-02-27T02:59:27.128Z,25.55
2019-02-27T03:10:43.976Z,27.45
2019-02-27T03:16:11.050Z,20.85
2019-02-27T03:21:55.448Z,22.22
2019-02-27T03:27:33.174Z,22.80
2019-02-27T03:33:23.264Z,21.62
2019-02-27T03:38:51.591Z,21.20
2019-02-27T03:44:38.437Z,22.60
2019-02-27T03:50:25.214Z,20.75
2019-02-27T03:56:26.746Z,24.00
2019-02-27T04:02:05.840Z,28.95
2019-02-27T04:07:45.560Z,26.77
2019-02-27T04:12:52.425Z,23.60
2019-02-27T04:17:56.490Z,22.30
2019-02-27T04:23:02.721Z,25.57
2019-02-27T04:28:08.821Z,26.17
2019-02-27T04:33:14.658Z,22.10
2019-02-27T04:38:20.859Z,22.73
2019-02-27T04:43:32.000Z,22.73
2019-02-27T04:48:35.242Z,22.05
2019-02-27T04:53:41.408Z,24.72
2019-02-27T04:58:47.489Z,28.83
2019-02-27T05:03:53.545Z,27.15
2019-02-27T05:09:00.132Z,27.32
2019-02-27T05:14:07.095Z,26.62
2019-02-27T05:19:15.163Z,20.70
2019-02-27T05:24:20.963Z,23.65
2019-02-27T05:29:27.131Z,23.85
2019-02-27T05:34:33.141Z,24.75
2019-02-27T05:39:39.626Z,18.32
2019-02-27T05:44:45.814Z,26.93
2019-02-27T05:49:52.007Z,25.40
2019-02-27T05:54:58.380Z,24.35
2019-02-27T06:00:04.693Z,26.10
2019-02-27T06:05:10.882Z,26.30
2019-02-27T06:10:19.739Z,40.08
2019-02-27T06:15:26.059Z,34.40
2019-02-27T06:20:32.756Z,44.25
2019-02-27T06:25:38.758Z,30.05
2019-02-27T06:30:44.850Z,31.93
2019-02-27T06:35:51.081Z,35.55
2019-02-27T06:40:59.267Z,30.77
2019-02-27T06:46:05.177Z,29.32
2019-02-27T06:51:11.384Z,22.87
2019-02-27T06:56:17.647Z,21.60
2019-02-27T07:01:23.878Z,23.35
2019-02-27T07:06:29.946Z,26.17
2019-02-27T07:11:35.979Z,30.45
2019-02-27T07:16:42.075Z,26.05
2019-02-27T07:21:48.324Z,34.92
2019-02-27T07:26:54.815Z,40.90
2019-02-27T07:32:01.026Z,50.45
2019-02-27T07:37:07.183Z,74.47
2019-02-27T07:42:13.245Z,60.28
2019-02-27T07:47:19.530Z,59.38
2019-02-27T07:52:25.768Z,55.78
2019-02-27T07:57:32.076Z,56.95
2019-02-27T08:02:38.430Z,55.58
2019-02-27T08:07:48.621Z,60.52
2019-02-27T08:12:55.592Z,42.55
2019-02-27T08:18:00.441Z,104.07
2019-02-27T08:23:06.997Z,48.23
2019-02-27T08:28:13.397Z,36.05
2019-02-27T08:33:19.584Z,36.60
2019-02-27T08:38:25.770Z,24.20
2019-02-27T08:43:31.847Z,20.17
2019-02-27T08:48:37.982Z,21.97
2019-02-27T08:53:44.205Z,22.75
2019-02-27T08:58:50.626Z,24.25
2019-02-27T09:03:56.984Z,25.40
2019-02-27T09:09:04.700Z,24.80
2019-02-27T09:14:11.998Z,23.00
2019-02-27T09:19:18.089Z,20.60
2019-02-27T09:24:24.307Z,17.55
2019-02-27T09:29:30.685Z,19.90
2019-02-27T09:34:36.791Z,20.82
2019-02-27T09:39:42.992Z,20.62
2019-02-27T09:44:49.256Z,19.92
2019-02-27T09:49:55.564Z,21.75
2019-02-27T09:55:01.726Z,19.50
2019-02-27T10:00:26.685Z,19.92
2019-02-27T10:05:36.294Z,17.05
2019-02-27T10:10:44.953Z,18.40
2019-02-27T10:15:49.090Z,16.25
2019-02-27T10:20:55.315Z,17.27
2019-02-27T10:26:01.283Z,22.25
2019-02-27T10:31:07.434Z,15.38
2019-02-27T10:36:13.823Z,16.35
2019-02-27T10:41:19.850Z,16.32
2019-02-27T10:46:26.299Z,16.62
2019-02-27T10:51:32.300Z,12.23
2019-02-27T10:56:38.163Z,11.83
2019-02-27T11:01:44.054Z,15.83
2019-02-27T11:06:50.115Z,8.65
2019-02-27T11:11:56.351Z,12.18
2019-02-27T11:17:03.430Z,5.78
2019-02-27T11:22:09.670Z,6.45
2019-02-27T11:27:16.866Z,6.37
2019-02-27T11:32:23.828Z,8.03
2019-02-27T11:37:29.875Z,6.85
2019-02-27T11:42:35.766Z,9.53
2019-02-27T11:47:44.688Z,13.45
2019-02-27T11:52:49.514Z,10.68
2019-02-27T11:57:55.816Z,10.75
2019-02-27T12:03:02.019Z,14.93
2019-02-27T12:08:08.077Z,16.97
2019-02-27T12:13:14.273Z,17.82
2019-02-27T12:18:20.130Z,18.25
2019-02-27T12:23:25.977Z,17.87
2019-02-27T12:28:32.056Z,21.93
2019-02-27T12:33:38.184Z,20.35
2019-02-27T12:38:44.363Z,19.82
2019-02-27T12:43:52.742Z,21.70
2019-02-27T12:48:59.014Z,20.35
2019-02-27T12:54:05.693Z,21.73
2019-02-27T12:59:11.886Z,21.45
2019-02-27T13:04:19.960Z,22.02
2019-02-27T13:09:25.894Z,22.10
2019-02-27T13:14:33.355Z,20.25
2019-02-27T13:19:39.338Z,23.12
2019-02-27T13:24:47.046Z,21.95
2019-02-27T13:29:56.598Z,22.37
2019-02-27T13:35:00.292Z,18.37
2019-02-27T13:40:08.074Z,20.00
2019-02-27T13:45:16.376Z,19.80
2019-02-27T13:50:25.679Z,21.90
2019-02-27T13:55:29.957Z,24.02
2019-02-27T14:00:36.125Z,21.57
2019-02-27T14:05:42.353Z,24.05
2019-02-27T14:10:50.483Z,15.93
2019-02-27T14:15:58.086Z,16.40
2019-02-27T14:21:03.484Z,14.28
2019-02-27T14:26:09.946Z,18.70
2019-02-27T14:31:15.811Z,13.03
2019-02-27T14:36:21.662Z,16.25
2019-02-27T14:41:27.506Z,12.45
2019-02-27T14:46:34.644Z,16.93
2019-02-27T14:51:41.147Z,15.35
2019-02-27T14:56:49.447Z,14.25
2019-02-27T15:01:55.202Z,12.03
2019-02-27T15:07:01.144Z,13.28
2019-02-27T15:12:06.998Z,14.35
2019-02-27T15:17:12.867Z,14.13
2019-02-27T15:22:20.545Z,15.88
2019-02-27T15:27:26.270Z,10.58
2019-02-27T15:32:32.121Z,10.72
2019-02-27T15:37:38.046Z,8.73
2019-02-27T15:42:43.965Z,8.68
2019-02-27T15:47:50.213Z,9.28
2019-02-27T15:52:56.350Z,7.67
2019-02-27T15:58:02.652Z,7.42
2019-02-27T16:03:11.767Z,8.95
2019-02-27T16:08:17.274Z,9.08
2019-02-27T16:13:23.400Z,10.40
2019-02-27T16:18:29.392Z,7.72
2019-02-27T16:23:37.430Z,8.88
2019-02-27T16:28:46.118Z,10.53
2019-02-27T16:33:51.616Z,11.57
2019-02-27T16:38:57.735Z,12.45
2019-02-27T16:44:04.147Z,11.12
2019-02-27T16:49:10.901Z,10.72
2019-02-27T16:54:19.187Z,9.23
2019-02-27T16:59:25.441Z,10.45
2019-02-27T17:04:33.969Z,10.88
2019-02-27T17:09:41.010Z,9.83
2019-02-27T17:14:48.983Z,7.78
2019-02-27T17:19:55.516Z,15.75
2019-02-27T17:25:01.967Z,11.78
2019-02-27T17:30:12.277Z,14.50
2019-02-27T17:35:20.510Z,14.28
2019-02-27T17:40:26.406Z,11.18
2019-02-27T17:45:32.796Z,11.05
2019-02-27T17:50:39.145Z,11.93
2019-02-27T17:55:45.510Z,14.90
2019-02-27T18:00:54.248Z,10.28
2019-02-27T18:06:00.849Z,14.35
2019-02-27T18:11:07.183Z,11.53
2019-02-27T18:16:13.505Z,12.50
2019-02-27T18:21:19.714Z,14.65
2019-02-27T18:26:26.054Z,9.78
2019-02-27T18:31:32.340Z,14.95
2019-02-27T18:36:42.879Z,11.63
2019-02-27T18:41:46.497Z,15.90
2019-02-27T18:46:52.776Z,16.48
2019-02-27T18:51:59.363Z,15.78
2019-02-27T18:57:05.982Z,12.28
2019-02-27T19:02:12.554Z,16.20
2019-02-27T19:07:20.218Z,18.45
2019-02-27T19:12:28.669Z,20.27
2019-02-27T19:17:35.022Z,22.17
2019-02-27T19:22:42.902Z,26.07
2019-02-27T19:27:50.559Z,25.82
2019-02-27T19:33:01.598Z,25.02
2019-02-27T19:38:04.964Z,32.58
2019-02-27T19:43:11.363Z,35.48
2019-02-27T19:48:17.579Z,23.18
2019-02-27T19:53:23.662Z,32.00
2019-02-27T19:58:29.935Z,31.23
2019-02-27T20:03:36.131Z,31.68
2019-02-27T20:08:45.390Z,28.75
2019-02-27T20:13:50.353Z,28.40
2019-02-27T20:18:56.610Z,28.12
2019-02-27T20:24:02.724Z,31.17
2019-02-27T20:29:08.988Z,28.10
2019-02-27T20:34:15.361Z,21.87
2019-02-27T20:39:23.179Z,27.45
2019-02-27T20:44:29.874Z,28.23
2019-02-27T20:49:36.095Z,33.18
2019-02-27T20:54:42.279Z,30.88
2019-02-27T20:59:48.529Z,37.30
2019-02-27T21:04:54.774Z,33.92
2019-02-27T21:10:00.821Z,29.63
2019-02-27T21:15:07.145Z,29.75
2019-02-27T21:20:13.556Z,30.50
2019-02-27T21:25:20.152Z,27.20
2019-02-27T21:30:26.561Z,25.43
2019-02-27T21:35:32.702Z,30.17
2019-02-27T21:40:38.981Z,28.05
2019-02-27T21:45:45.313Z,35.52
2019-02-27T21:50:51.512Z,32.42
2019-02-27T21:55:57.751Z,31.12
2019-02-27T22:01:04.046Z,30.85
2019-02-27T22:06:10.271Z,40.28
2019-02-27T22:11:16.458Z,29.60
2019-02-27T22:16:22.821Z,32.98
2019-02-27T22:21:31.334Z,30.92
2019-02-27T22:26:37.406Z,28.30
2019-02-27T22:31:44.350Z,27.50
2019-02-27T22:36:50.637Z,42.58
2019-02-27T22:41:56.654Z,33.75
2019-02-27T22:47:02.794Z,38.42
2019-02-27T22:52:09.132Z,34.88
2019-02-27T22:57:15.441Z,39.38
2019-02-27T23:02:23.880Z,30.97
2019-02-27T23:07:30.210Z,35.28
2019-02-27T23:12:39.497Z,37.15
2019-02-27T23:17:44.238Z,31.15
2019-02-27T23:22:50.588Z,32.98
2019-02-27T23:27:57.568Z,29.63
2019-02-27T23:33:04.607Z,34.10
2019-02-27T23:38:10.866Z,37.67
2019-02-27T23:43:17.118Z,28.75
2019-02-27T23:48:23.174Z,33.45
2019-02-27T23:53:29.597Z,35.35
2019-02-27T23:58:35.679Z,31.48
